7W6

Hyde County Airport

Engelhard, North Carolina, USA
METAR K7W6 221445Z AUTO 24005KT 10SM CLR 27/20 A3012 RMK AO2 T02650203
Observed Flight Rules
Sep-22 @ 14:45 UTC (16 minutes ago) Visual Flight Rules
Wind Visibility Clouds
240° at 5 knots 10 miles
Temperatures Readings
Current 27°C / 81°F
Dewpoint 20°C / 68°F
Humidity 66%
Altimeter 30.12" Hg
Pressure 1020 hPa
Elevation 2
METAR K7W6 221445Z AUTO 24005KT 10SM CLR 27/20 A3012 RMK AO2 T02650203
Observed Flight Rules
Sep-22 @ 14:45 UTC
(16 minutes ago)
VFR
Wind Visibility
240° at 5 knots 10 miles
Clouds
Temperature Dewpoint
27°C / 81°F 20°C / 68°F
Humidity Altimeter Pressure
66% 30.12" Hg 1020 hPa